sensor_id;sensor_type;location;lat;lon;timestamp;temperature;humidity
21149;DHT22;10732;51.472;6.466;2024-01-30T00:02:17;8.00;99.90
21149;DHT22;10732;51.472;6.466;2024-01-30T00:04:42;7.90;99.90
21149;DHT22;10732;51.472;6.466;2024-01-30T00:07:08;7.90;99.90
21149;DHT22;10732;51.472;6.466;2024-01-30T00:09:34;7.90;99.90
21149;DHT22;10732;51.472;6.466;2024-01-30T00:11:59;7.80;99.90
21149;DHT22;10732;51.472;6.466;2024-01-30T00:14:25;7.80;99.90
21149;DHT22;10732;51.472;6.466;2024-01-30T00:16:51;7.70;99.90
21149;DHT22;10732;51.472;6.466;2024-01-30T00:19:16;7.80;99.90
21149;DHT22;10732;51.472;6.466;2024-01-30T00:21:42;7.70;99.90
21149;DHT22;10732;51.472;6.466;2024-01-30T00:24:08;7.70;99.90
21149;DHT22;10732;51.472;6.466;2024-01-30T00:26:33;7.60;99.90
21149;DHT22;10732;51.472;6.466;2024-01-30T00:28:59;7.60;99.90
21149;DHT22;10732;51.472;6.466;2024-01-30T00:31:25;7.60;99.90
21149;DHT22;10732;51.472;6.466;2024-01-30T00:33:50;7.60;99.90
21149;DHT22;10732;51.472;6.466;2024-01-30T00:36:16;7.60;99.90
21149;DHT22;10732;51.472;6.466;2024-01-30T00:38:41;7.60;99.90
21149;DHT22;10732;51.472;6.466;2024-01-30T00:41:08;7.50;99.90
21149;DHT22;10732;51.472;6.466;2024-01-30T00:43:34;7.50;99.90
21149;DHT22;10732;51.472;6.466;2024-01-30T00:45:59;7.50;99.90
21149;DHT22;10732;51.472;6.466;2024-01-30T00:48:25;7.50;99.90
21149;DHT22;10732;51.472;6.466;2024-01-30T00:50:51;7.50;99.90
21149;DHT22;10732;51.472;6.466;2024-01-30T00:53:16;7.50;99.90
21149;DHT22;10732;51.472;6.466;2024-01-30T00:55:42;7.50;99.90
21149;DHT22;10732;51.472;6.466;2024-01-30T00:58:07;7.50;99.90
21149;DHT22;10732;51.472;6.466;2024-01-30T01:00:33;7.50;99.90
21149;DHT22;10732;51.472;6.466;2024-01-30T01:02:59;7.50;99.90
21149;DHT22;10732;51.472;6.466;2024-01-30T01:05:25;7.50;99.90
21149;DHT22;10732;51.472;6.466;2024-01-30T01:07:50;7.50;99.90
21149;DHT22;10732;51.472;6.466;2024-01-30T01:10:17;7.40;99.90
21149;DHT22;10732;51.472;6.466;2024-01-30T01:12:43;7.40;99.90
21149;DHT22;10732;51.472;6.466;2024-01-30T01:15:09;7.50;99.90
21149;DHT22;10732;51.472;6.466;2024-01-30T01:17:39;7.50;99.90
21149;DHT22;10732;51.472;6.466;2024-01-30T01:20:06;7.50;99.90
21149;DHT22;10732;51.472;6.466;2024-01-30T01:22:32;7.60;99.90
21149;DHT22;10732;51.472;6.466;2024-01-30T01:24:58;7.50;99.90
21149;DHT22;10732;51.472;6.466;2024-01-30T01:27:24;7.60;99.90
21149;DHT22;10732;51.472;6.466;2024-01-30T01:29:50;7.60;99.90
21149;DHT22;10732;51.472;6.466;2024-01-30T01:32:16;7.50;99.90
21149;DHT22;10732;51.472;6.466;2024-01-30T01:34:41;7.60;99.90
21149;DHT22;10732;51.472;6.466;2024-01-30T01:37:07;7.60;99.90
21149;DHT22;10732;51.472;6.466;2024-01-30T01:39:32;7.60;99.90
21149;DHT22;10732;51.472;6.466;2024-01-30T01:41:58;7.50;99.90
21149;DHT22;10732;51.472;6.466;2024-01-30T01:44:24;7.60;99.90
21149;DHT22;10732;51.472;6.466;2024-01-30T01:46:50;7.60;99.90
21149;DHT22;10732;51.472;6.466;2024-01-30T01:49:16;7.60;99.90
21149;DHT22;10732;51.472;6.466;2024-01-30T01:51:43;7.70;99.90
21149;DHT22;10732;51.472;6.466;2024-01-30T01:54:10;7.60;99.90
21149;DHT22;10732;51.472;6.466;2024-01-30T01:56:36;7.70;99.90
21149;DHT22;10732;51.472;6.466;2024-01-30T01:59:08;7.70;99.90
21149;DHT22;10732;51.472;6.466;2024-01-30T02:01:34;7.60;99.90
21149;DHT22;10732;51.472;6.466;2024-01-30T02:04:01;7.60;99.90
21149;DHT22;10732;51.472;6.466;2024-01-30T02:06:27;7.50;99.90
21149;DHT22;10732;51.472;6.466;2024-01-30T02:08:53;7.50;99.90
21149;DHT22;10732;51.472;6.466;2024-01-30T02:11:20;7.50;99.90
21149;DHT22;10732;51.472;6.466;2024-01-30T02:13:46;7.50;99.90
21149;DHT22;10732;51.472;6.466;2024-01-30T02:16:11;7.50;99.90
21149;DHT22;10732;51.472;6.466;2024-01-30T02:18:37;7.50;99.90
21149;DHT22;10732;51.472;6.466;2024-01-30T02:21:07;7.40;99.90
21149;DHT22;10732;51.472;6.466;2024-01-30T02:23:33;7.30;99.90
21149;DHT22;10732;51.472;6.466;2024-01-30T02:25:59;7.30;99.90
21149;DHT22;10732;51.472;6.466;2024-01-30T02:28:25;7.30;99.90
21149;DHT22;10732;51.472;6.466;2024-01-30T02:30:51;7.30;99.90
21149;DHT22;10732;51.472;6.466;2024-01-30T02:33:16;7.30;99.90
21149;DHT22;10732;51.472;6.466;2024-01-30T02:35:42;7.30;99.90
21149;DHT22;10732;51.472;6.466;2024-01-30T02:38:08;7.20;99.90
21149;DHT22;10732;51.472;6.466;2024-01-30T02:40:33;7.20;99.90
21149;DHT22;10732;51.472;6.466;2024-01-30T02:42:59;7.20;99.90
21149;DHT22;10732;51.472;6.466;2024-01-30T02:45:25;7.30;99.90
21149;DHT22;10732;51.472;6.466;2024-01-30T02:47:51;7.20;99.90
21149;DHT22;10732;51.472;6.466;2024-01-30T02:50:16;7.20;99.90
21149;DHT22;10732;51.472;6.466;2024-01-30T02:52:43;7.20;99.90
21149;DHT22;10732;51.472;6.466;2024-01-30T02:55:09;7.30;99.90
21149;DHT22;10732;51.472;6.466;2024-01-30T02:57:35;7.30;99.90
21149;DHT22;10732;51.472;6.466;2024-01-30T03:00:00;7.40;99.90
21149;DHT22;10732;51.472;6.466;2024-01-30T03:02:26;7.40;99.90
21149;DHT22;10732;51.472;6.466;2024-01-30T03:04:52;7.30;99.90
21149;DHT22;10732;51.472;6.466;2024-01-30T03:07:17;7.40;99.90
21149;DHT22;10732;51.472;6.466;2024-01-30T03:09:43;7.40;99.90
21149;DHT22;10732;51.472;6.466;2024-01-30T03:12:09;7.40;99.90
21149;DHT22;10732;51.472;6.466;2024-01-30T03:14:35;7.40;99.90
21149;DHT22;10732;51.472;6.466;2024-01-30T03:17:00;7.40;99.90
21149;DHT22;10732;51.472;6.466;2024-01-30T03:19:26;7.40;99.90
21149;DHT22;10732;51.472;6.466;2024-01-30T03:21:52;7.50;99.90
21149;DHT22;10732;51.472;6.466;2024-01-30T03:24:17;7.40;99.90
21149;DHT22;10732;51.472;6.466;2024-01-30T03:26:43;7.40;99.90
21149;DHT22;10732;51.472;6.466;2024-01-30T03:29:09;7.40;99.90
21149;DHT22;10732;51.472;6.466;2024-01-30T03:31:35;7.40;99.90
21149;DHT22;10732;51.472;6.466;2024-01-30T03:34:01;7.40;99.90
21149;DHT22;10732;51.472;6.466;2024-01-30T03:36:26;7.40;99.90
21149;DHT22;10732;51.472;6.466;2024-01-30T03:38:52;7.30;99.90
21149;DHT22;10732;51.472;6.466;2024-01-30T03:41:17;7.30;99.90
21149;DHT22;10732;51.472;6.466;2024-01-30T03:43:43;7.30;99.90
21149;DHT22;10732;51.472;6.466;2024-01-30T03:46:09;7.30;99.90
21149;DHT22;10732;51.472;6.466;2024-01-30T03:48:34;7.20;99.90
21149;DHT22;10732;51.472;6.466;2024-01-30T03:51:00;7.20;99.90
21149;DHT22;10732;51.472;6.466;2024-01-30T03:53:25;7.20;99.90
21149;DHT22;10732;51.472;6.466;2024-01-30T03:55:51;7.20;99.90
21149;DHT22;10732;51.472;6.466;2024-01-30T03:58:17;7.10;99.90
21149;DHT22;10732;51.472;6.466;2024-01-30T04:00:42;7.10;99.90
21149;DHT22;10732;51.472;6.466;2024-01-30T04:03:08;7.10;99.90
21149;DHT22;10732;51.472;6.466;2024-01-30T04:05:33;7.10;99.90
21149;DHT22;10732;51.472;6.466;2024-01-30T04:07:59;7.10;99.90
21149;DHT22;10732;51.472;6.466;2024-01-30T04:10:25;7.00;99.90
21149;DHT22;10732;51.472;6.466;2024-01-30T04:12:51;7.00;99.90
21149;DHT22;10732;51.472;6.466;2024-01-30T04:15:17;7.00;99.90
21149;DHT22;10732;51.472;6.466;2024-01-30T04:17:43;7.00;99.90
21149;DHT22;10732;51.472;6.466;2024-01-30T04:20:16;7.00;99.90
21149;DHT22;10732;51.472;6.466;2024-01-30T04:22:45;7.00;99.90
21149;DHT22;10732;51.472;6.466;2024-01-30T04:25:12;7.00;99.90
21149;DHT22;10732;51.472;6.466;2024-01-30T04:27:38;7.00;99.90
21149;DHT22;10732;51.472;6.466;2024-01-30T04:30:04;7.00;99.90
21149;DHT22;10732;51.472;6.466;2024-01-30T04:32:30;7.10;99.90
21149;DHT22;10732;51.472;6.466;2024-01-30T04:34:55;7.10;99.90
21149;DHT22;10732;51.472;6.466;2024-01-30T04:37:21;7.00;99.90
21149;DHT22;10732;51.472;6.466;2024-01-30T04:39:47;7.10;99.90
21149;DHT22;10732;51.472;6.466;2024-01-30T04:42:13;7.10;99.90
21149;DHT22;10732;51.472;6.466;2024-01-30T04:44:38;7.00;99.90
21149;DHT22;10732;51.472;6.466;2024-01-30T04:47:04;7.10;99.90
21149;DHT22;10732;51.472;6.466;2024-01-30T04:49:31;7.10;99.90
21149;DHT22;10732;51.472;6.466;2024-01-30T04:51:57;7.10;99.90
21149;DHT22;10732;51.472;6.466;2024-01-30T04:54:23;7.10;99.90
21149;DHT22;10732;51.472;6.466;2024-01-30T04:56:48;7.10;99.90
21149;DHT22;10732;51.472;6.466;2024-01-30T04:59:14;7.10;99.90
21149;DHT22;10732;51.472;6.466;2024-01-30T05:01:40;7.10;99.90
21149;DHT22;10732;51.472;6.466;2024-01-30T05:04:07;7.10;99.90
21149;DHT22;10732;51.472;6.466;2024-01-30T05:06:33;7.30;99.90
21149;DHT22;10732;51.472;6.466;2024-01-30T05:08:58;7.30;99.90
21149;DHT22;10732;51.472;6.466;2024-01-30T05:11:24;7.30;99.90
21149;DHT22;10732;51.472;6.466;2024-01-30T05:13:49;7.30;99.90
21149;DHT22;10732;51.472;6.466;2024-01-30T05:16:15;7.20;99.90
21149;DHT22;10732;51.472;6.466;2024-01-30T05:18:41;7.20;99.90
21149;DHT22;10732;51.472;6.466;2024-01-30T05:21:06;7.20;99.90
21149;DHT22;10732;51.472;6.466;2024-01-30T05:23:32;7.30;99.90
21149;DHT22;10732;51.472;6.466;2024-01-30T05:25:57;7.30;99.90
21149;DHT22;10732;51.472;6.466;2024-01-30T05:28:24;7.40;99.90
21149;DHT22;10732;51.472;6.466;2024-01-30T05:30:49;7.40;99.90
21149;DHT22;10732;51.472;6.466;2024-01-30T05:33:15;7.40;99.90
21149;DHT22;10732;51.472;6.466;2024-01-30T05:35:41;7.40;99.90
21149;DHT22;10732;51.472;6.466;2024-01-30T05:38:06;7.40;99.90
21149;DHT22;10732;51.472;6.466;2024-01-30T05:40:32;7.40;99.90
21149;DHT22;10732;51.472;6.466;2024-01-30T05:42:57;7.40;99.90
21149;DHT22;10732;51.472;6.466;2024-01-30T05:45:27;7.40;99.90
21149;DHT22;10732;51.472;6.466;2024-01-30T05:47:53;7.40;99.90
21149;DHT22;10732;51.472;6.466;2024-01-30T05:50:19;7.40;99.90
21149;DHT22;10732;51.472;6.466;2024-01-30T05:52:45;7.40;99.90
21149;DHT22;10732;51.472;6.466;2024-01-30T05:55:11;7.40;99.90
21149;DHT22;10732;51.472;6.466;2024-01-30T05:57:38;7.50;99.90
21149;DHT22;10732;51.472;6.466;2024-01-30T06:00:04;7.50;99.90
21149;DHT22;10732;51.472;6.466;2024-01-30T06:02:30;7.50;99.90
21149;DHT22;10732;51.472;6.466;2024-01-30T06:04:56;7.50;99.90
21149;DHT22;10732;51.472;6.466;2024-01-30T06:07:21;7.60;99.90
21149;DHT22;10732;51.472;6.466;2024-01-30T06:09:47;7.50;99.90
21149;DHT22;10732;51.472;6.466;2024-01-30T06:12:13;7.60;99.90
21149;DHT22;10732;51.472;6.466;2024-01-30T06:14:39;7.60;99.90
21149;DHT22;10732;51.472;6.466;2024-01-30T06:17:05;7.60;99.90
21149;DHT22;10732;51.472;6.466;2024-01-30T06:19:30;7.60;99.90
21149;DHT22;10732;51.472;6.466;2024-01-30T06:21:57;7.60;99.90
21149;DHT22;10732;51.472;6.466;2024-01-30T06:24:23;7.60;99.90
21149;DHT22;10732;51.472;6.466;2024-01-30T06:26:48;7.50;99.90
21149;DHT22;10732;51.472;6.466;2024-01-30T06:29:14;7.60;99.90
21149;DHT22;10732;51.472;6.466;2024-01-30T06:31:43;7.50;99.90
21149;DHT22;10732;51.472;6.466;2024-01-30T06:34:09;7.50;99.90
21149;DHT22;10732;51.472;6.466;2024-01-30T06:36:36;7.40;99.90
21149;DHT22;10732;51.472;6.466;2024-01-30T06:39:02;7.50;99.90
21149;DHT22;10732;51.472;6.466;2024-01-30T06:41:28;7.50;99.90
21149;DHT22;10732;51.472;6.466;2024-01-30T06:43:54;7.50;99.90
21149;DHT22;10732;51.472;6.466;2024-01-30T06:46:19;7.50;99.90
21149;DHT22;10732;51.472;6.466;2024-01-30T06:48:45;7.50;99.90
21149;DHT22;10732;51.472;6.466;2024-01-30T06:51:11;7.50;99.90
21149;DHT22;10732;51.472;6.466;2024-01-30T06:53:37;7.50;99.90
21149;DHT22;10732;51.472;6.466;2024-01-30T06:56:03;7.50;99.90
21149;DHT22;10732;51.472;6.466;2024-01-30T06:58:28;7.50;99.90
21149;DHT22;10732;51.472;6.466;2024-01-30T07:00:54;7.40;99.90
21149;DHT22;10732;51.472;6.466;2024-01-30T07:03:20;7.40;99.90
21149;DHT22;10732;51.472;6.466;2024-01-30T07:05:45;7.40;99.90
21149;DHT22;10732;51.472;6.466;2024-01-30T07:08:11;7.40;99.90
21149;DHT22;10732;51.472;6.466;2024-01-30T07:10:36;7.40;99.90
21149;DHT22;10732;51.472;6.466;2024-01-30T07:13:02;7.40;99.90
21149;DHT22;10732;51.472;6.466;2024-01-30T07:15:29;7.40;99.90
21149;DHT22;10732;51.472;6.466;2024-01-30T07:17:55;7.50;99.90
21149;DHT22;10732;51.472;6.466;2024-01-30T07:20:20;7.50;99.90
21149;DHT22;10732;51.472;6.466;2024-01-30T07:22:46;7.50;99.90
21149;DHT22;10732;51.472;6.466;2024-01-30T07:25:12;7.50;99.90
21149;DHT22;10732;51.472;6.466;2024-01-30T07:27:38;7.50;99.90
21149;DHT22;10732;51.472;6.466;2024-01-30T07:30:03;7.60;99.90
21149;DHT22;10732;51.472;6.466;2024-01-30T07:32:29;7.60;99.90
21149;DHT22;10732;51.472;6.466;2024-01-30T07:34:55;7.50;99.90
21149;DHT22;10732;51.472;6.466;2024-01-30T07:37:20;7.50;99.90
21149;DHT22;10732;51.472;6.466;2024-01-30T07:39:46;7.60;99.90
21149;DHT22;10732;51.472;6.466;2024-01-30T07:42:12;7.60;99.90
21149;DHT22;10732;51.472;6.466;2024-01-30T07:44:37;7.60;99.90
21149;DHT22;10732;51.472;6.466;2024-01-30T07:47:04;7.60;99.90
21149;DHT22;10732;51.472;6.466;2024-01-30T07:49:30;7.60;99.90
21149;DHT22;10732;51.472;6.466;2024-01-30T07:51:55;7.60;99.90
21149;DHT22;10732;51.472;6.466;2024-01-30T07:54:21;7.60;99.90
21149;DHT22;10732;51.472;6.466;2024-01-30T07:56:46;7.60;99.90
21149;DHT22;10732;51.472;6.466;2024-01-30T07:59:12;7.60;99.90
21149;DHT22;10732;51.472;6.466;2024-01-30T08:01:38;7.70;99.90
21149;DHT22;10732;51.472;6.466;2024-01-30T08:04:03;7.70;99.90
21149;DHT22;10732;51.472;6.466;2024-01-30T08:06:29;7.70;99.90
21149;DHT22;10732;51.472;6.466;2024-01-30T08:08:54;7.70;99.90
21149;DHT22;10732;51.472;6.466;2024-01-30T08:11:21;7.70;99.90
21149;DHT22;10732;51.472;6.466;2024-01-30T08:13:52;7.80;99.90
21149;DHT22;10732;51.472;6.466;2024-01-30T08:16:17;7.80;99.90
21149;DHT22;10732;51.472;6.466;2024-01-30T08:18:43;7.80;99.90
21149;DHT22;10732;51.472;6.466;2024-01-30T08:21:09;7.90;99.90
21149;DHT22;10732;51.472;6.466;2024-01-30T08:23:34;7.90;99.90
21149;DHT22;10732;51.472;6.466;2024-01-30T08:26:00;7.90;99.90
21149;DHT22;10732;51.472;6.466;2024-01-30T08:28:25;8.00;99.90
21149;DHT22;10732;51.472;6.466;2024-01-30T08:30:51;8.00;99.90
21149;DHT22;10732;51.472;6.466;2024-01-30T08:33:17;8.00;99.90
21149;DHT22;10732;51.472;6.466;2024-01-30T08:35:43;8.10;99.90
21149;DHT22;10732;51.472;6.466;2024-01-30T08:38:08;8.10;99.90
21149;DHT22;10732;51.472;6.466;2024-01-30T08:40:34;8.10;99.90
21149;DHT22;10732;51.472;6.466;2024-01-30T08:43:00;8.10;99.90
21149;DHT22;10732;51.472;6.466;2024-01-30T08:45:25;8.20;99.90
21149;DHT22;10732;51.472;6.466;2024-01-30T08:47:51;8.20;99.90
21149;DHT22;10732;51.472;6.466;2024-01-30T08:50:17;8.30;99.90
21149;DHT22;10732;51.472;6.466;2024-01-30T08:52:42;8.30;99.90
21149;DHT22;10732;51.472;6.466;2024-01-30T08:55:08;8.40;99.90
21149;DHT22;10732;51.472;6.466;2024-01-30T08:57:34;8.30;99.90
21149;DHT22;10732;51.472;6.466;2024-01-30T09:00:00;8.30;99.90
21149;DHT22;10732;51.472;6.466;2024-01-30T09:02:25;8.30;99.90
21149;DHT22;10732;51.472;6.466;2024-01-30T09:04:51;8.30;99.90
21149;DHT22;10732;51.472;6.466;2024-01-30T09:07:16;8.40;99.90
21149;DHT22;10732;51.472;6.466;2024-01-30T09:09:42;8.30;99.90
21149;DHT22;10732;51.472;6.466;2024-01-30T09:12:08;8.40;99.90
21149;DHT22;10732;51.472;6.466;2024-01-30T09:14:35;8.40;99.90
21149;DHT22;10732;51.472;6.466;2024-01-30T09:17:01;8.50;99.90
21149;DHT22;10732;51.472;6.466;2024-01-30T09:19:28;8.60;99.90
21149;DHT22;10732;51.472;6.466;2024-01-30T09:21:53;8.60;99.90
21149;DHT22;10732;51.472;6.466;2024-01-30T09:24:19;8.70;99.90
21149;DHT22;10732;51.472;6.466;2024-01-30T09:26:45;8.80;99.90
21149;DHT22;10732;51.472;6.466;2024-01-30T09:29:10;8.80;99.90
21149;DHT22;10732;51.472;6.466;2024-01-30T09:31:36;9.00;99.90
21149;DHT22;10732;51.472;6.466;2024-01-30T09:34:01;9.00;99.90
21149;DHT22;10732;51.472;6.466;2024-01-30T09:36:27;9.10;99.90
21149;DHT22;10732;51.472;6.466;2024-01-30T09:38:53;9.20;99.90
21149;DHT22;10732;51.472;6.466;2024-01-30T09:41:19;9.40;99.90
21149;DHT22;10732;51.472;6.466;2024-01-30T09:43:47;9.70;99.90
21149;DHT22;10732;51.472;6.466;2024-01-30T09:46:15;10.20;99.90
21149;DHT22;10732;51.472;6.466;2024-01-30T09:48:41;10.30;99.90
21149;DHT22;10732;51.472;6.466;2024-01-30T09:51:09;10.20;99.90
21149;DHT22;10732;51.472;6.466;2024-01-30T09:53:36;10.10;99.90
21149;DHT22;10732;51.472;6.466;2024-01-30T09:56:02;10.00;99.90
21149;DHT22;10732;51.472;6.466;2024-01-30T09:58:28;9.90;99.90
21149;DHT22;10732;51.472;6.466;2024-01-30T10:00:54;9.80;99.90
21149;DHT22;10732;51.472;6.466;2024-01-30T10:03:19;9.90;99.90
21149;DHT22;10732;51.472;6.466;2024-01-30T10:05:51;9.80;99.90
21149;DHT22;10732;51.472;6.466;2024-01-30T10:08:18;9.70;99.90
21149;DHT22;10732;51.472;6.466;2024-01-30T10:10:48;9.70;99.90
21149;DHT22;10732;51.472;6.466;2024-01-30T10:13:15;9.70;99.90
21149;DHT22;10732;51.472;6.466;2024-01-30T10:15:41;9.70;99.90
21149;DHT22;10732;51.472;6.466;2024-01-30T10:18:08;9.80;99.90
21149;DHT22;10732;51.472;6.466;2024-01-30T10:20:35;9.80;99.90
21149;DHT22;10732;51.472;6.466;2024-01-30T10:23:01;9.90;99.90
21149;DHT22;10732;51.472;6.466;2024-01-30T10:25:27;9.80;99.90
21149;DHT22;10732;51.472;6.466;2024-01-30T10:27:55;9.90;99.90
21149;DHT22;10732;51.472;6.466;2024-01-30T10:30:24;9.80;99.90
21149;DHT22;10732;51.472;6.466;2024-01-30T10:32:50;9.90;99.90
21149;DHT22;10732;51.472;6.466;2024-01-30T10:35:16;9.80;99.90
21149;DHT22;10732;51.472;6.466;2024-01-30T10:37:47;9.80;99.90
21149;DHT22;10732;51.472;6.466;2024-01-30T10:40:14;9.80;99.90
21149;DHT22;10732;51.472;6.466;2024-01-30T10:42:43;9.70;99.90
21149;DHT22;10732;51.472;6.466;2024-01-30T10:45:11;9.70;99.90
21149;DHT22;10732;51.472;6.466;2024-01-30T10:47:44;9.70;99.90
21149;DHT22;10732;51.472;6.466;2024-01-30T10:50:09;9.80;99.90
21149;DHT22;10732;51.472;6.466;2024-01-30T10:52:36;9.80;99.90
21149;DHT22;10732;51.472;6.466;2024-01-30T10:55:04;9.80;99.90
21149;DHT22;10732;51.472;6.466;2024-01-30T10:57:37;9.90;99.90
21149;DHT22;10732;51.472;6.466;2024-01-30T11:00:05;9.90;99.90
21149;DHT22;10732;51.472;6.466;2024-01-30T11:02:41;9.90;99.90
21149;DHT22;10732;51.472;6.466;2024-01-30T11:05:08;10.10;99.90
21149;DHT22;10732;51.472;6.466;2024-01-30T11:07:34;10.10;99.90
21149;DHT22;10732;51.472;6.466;2024-01-30T11:10:03;10.30;99.90
21149;DHT22;10732;51.472;6.466;2024-01-30T11:12:30;10.40;99.90
21149;DHT22;10732;51.472;6.466;2024-01-30T11:15:16;10.30;99.90
21149;DHT22;10732;51.472;6.466;2024-01-30T11:17:49;10.40;99.90
21149;DHT22;10732;51.472;6.466;2024-01-30T11:20:25;10.30;99.90
21149;DHT22;10732;51.472;6.466;2024-01-30T11:22:52;10.20;99.90
21149;DHT22;10732;51.472;6.466;2024-01-30T11:25:20;10.20;99.90
21149;DHT22;10732;51.472;6.466;2024-01-30T11:27:46;10.10;99.90
21149;DHT22;10732;51.472;6.466;2024-01-30T11:30:41;10.10;99.90
21149;DHT22;10732;51.472;6.466;2024-01-30T11:33:10;10.20;99.90
21149;DHT22;10732;51.472;6.466;2024-01-30T11:35:44;10.30;99.90
21149;DHT22;10732;51.472;6.466;2024-01-30T11:38:11;10.20;99.90
21149;DHT22;10732;51.472;6.466;2024-01-30T11:40:39;10.20;99.90
21149;DHT22;10732;51.472;6.466;2024-01-30T11:43:06;10.20;99.90
21149;DHT22;10732;51.472;6.466;2024-01-30T11:45:33;10.30;99.90
21149;DHT22;10732;51.472;6.466;2024-01-30T11:47:59;10.30;99.90
21149;DHT22;10732;51.472;6.466;2024-01-30T11:50:27;10.40;99.90
21149;DHT22;10732;51.472;6.466;2024-01-30T11:52:54;10.40;99.90
21149;DHT22;10732;51.472;6.466;2024-01-30T11:55:19;10.50;99.90
21149;DHT22;10732;51.472;6.466;2024-01-30T11:57:45;10.40;99.90
21149;DHT22;10732;51.472;6.466;2024-01-30T12:00:18;10.50;99.90
21149;DHT22;10732;51.472;6.466;2024-01-30T12:02:48;10.60;99.90
21149;DHT22;10732;51.472;6.466;2024-01-30T12:05:14;10.70;99.90
21149;DHT22;10732;51.472;6.466;2024-01-30T12:07:40;10.80;99.90
21149;DHT22;10732;51.472;6.466;2024-01-30T12:10:06;10.90;99.90
21149;DHT22;10732;51.472;6.466;2024-01-30T12:12:35;10.90;99.90
21149;DHT22;10732;51.472;6.466;2024-01-30T12:15:00;10.90;99.90
21149;DHT22;10732;51.472;6.466;2024-01-30T12:17:31;11.00;99.90
21149;DHT22;10732;51.472;6.466;2024-01-30T12:20:07;11.00;99.90
21149;DHT22;10732;51.472;6.466;2024-01-30T12:22:40;11.10;99.90
21149;DHT22;10732;51.472;6.466;2024-01-30T12:25:11;11.20;99.90
21149;DHT22;10732;51.472;6.466;2024-01-30T12:27:37;11.30;99.90
21149;DHT22;10732;51.472;6.466;2024-01-30T12:30:11;11.40;99.90
21149;DHT22;10732;51.472;6.466;2024-01-30T12:32:38;11.40;99.90
21149;DHT22;10732;51.472;6.466;2024-01-30T12:35:07;11.40;99.90
21149;DHT22;10732;51.472;6.466;2024-01-30T12:37:33;11.50;99.90
21149;DHT22;10732;51.472;6.466;2024-01-30T12:39:59;11.60;99.90
21149;DHT22;10732;51.472;6.466;2024-01-30T12:42:27;11.70;99.90
21149;DHT22;10732;51.472;6.466;2024-01-30T12:44:52;11.70;99.90
21149;DHT22;10732;51.472;6.466;2024-01-30T12:47:18;11.80;99.90
21149;DHT22;10732;51.472;6.466;2024-01-30T12:49:46;11.90;99.90
21149;DHT22;10732;51.472;6.466;2024-01-30T12:52:13;12.00;99.90
21149;DHT22;10732;51.472;6.466;2024-01-30T12:54:39;12.10;99.90
21149;DHT22;10732;51.472;6.466;2024-01-30T12:57:05;12.20;99.90
21149;DHT22;10732;51.472;6.466;2024-01-30T12:59:31;12.10;99.90
21149;DHT22;10732;51.472;6.466;2024-01-30T13:01:58;12.20;99.90
21149;DHT22;10732;51.472;6.466;2024-01-30T13:04:24;12.30;99.90
21149;DHT22;10732;51.472;6.466;2024-01-30T13:06:49;12.30;99.90
21149;DHT22;10732;51.472;6.466;2024-01-30T13:09:15;12.30;99.90
21149;DHT22;10732;51.472;6.466;2024-01-30T13:11:41;12.20;99.90
21149;DHT22;10732;51.472;6.466;2024-01-30T13:14:06;12.10;99.90
21149;DHT22;10732;51.472;6.466;2024-01-30T13:16:32;12.10;99.90
21149;DHT22;10732;51.472;6.466;2024-01-30T13:18:58;11.90;99.90
21149;DHT22;10732;51.472;6.466;2024-01-30T13:21:23;11.90;99.90
21149;DHT22;10732;51.472;6.466;2024-01-30T13:23:49;11.90;99.90
21149;DHT22;10732;51.472;6.466;2024-01-30T13:26:18;11.90;99.90
21149;DHT22;10732;51.472;6.466;2024-01-30T13:28:44;11.90;99.90
21149;DHT22;10732;51.472;6.466;2024-01-30T13:31:09;11.80;99.90
21149;DHT22;10732;51.472;6.466;2024-01-30T13:33:35;11.70;99.90
21149;DHT22;10732;51.472;6.466;2024-01-30T13:36:00;11.80;99.90
21149;DHT22;10732;51.472;6.466;2024-01-30T13:38:26;11.70;99.90
21149;DHT22;10732;51.472;6.466;2024-01-30T13:40:51;11.70;99.90
21149;DHT22;10732;51.472;6.466;2024-01-30T13:43:17;11.70;99.90
21149;DHT22;10732;51.472;6.466;2024-01-30T13:45:43;11.70;99.90
21149;DHT22;10732;51.472;6.466;2024-01-30T13:48:09;11.70;99.90
21149;DHT22;10732;51.472;6.466;2024-01-30T13:50:34;11.70;99.90
21149;DHT22;10732;51.472;6.466;2024-01-30T13:53:01;11.90;99.90
21149;DHT22;10732;51.472;6.466;2024-01-30T13:55:27;11.80;99.90
21149;DHT22;10732;51.472;6.466;2024-01-30T13:57:53;11.80;99.90
21149;DHT22;10732;51.472;6.466;2024-01-30T14:00:18;11.80;99.90
21149;DHT22;10732;51.472;6.466;2024-01-30T14:02:44;11.80;99.90
21149;DHT22;10732;51.472;6.466;2024-01-30T14:05:09;11.70;99.90
21149;DHT22;10732;51.472;6.466;2024-01-30T14:07:36;11.60;99.90
21149;DHT22;10732;51.472;6.466;2024-01-30T14:10:03;11.50;99.90
21149;DHT22;10732;51.472;6.466;2024-01-30T14:12:28;11.50;99.90
21149;DHT22;10732;51.472;6.466;2024-01-30T14:14:55;11.50;99.90
21149;DHT22;10732;51.472;6.466;2024-01-30T14:17:21;11.60;99.90
21149;DHT22;10732;51.472;6.466;2024-01-30T14:19:46;11.60;99.90
21149;DHT22;10732;51.472;6.466;2024-01-30T14:22:12;11.60;99.90
21149;DHT22;10732;51.472;6.466;2024-01-30T14:24:37;11.50;99.90
21149;DHT22;10732;51.472;6.466;2024-01-30T14:27:03;11.40;99.90
21149;DHT22;10732;51.472;6.466;2024-01-30T14:29:28;11.40;99.90
21149;DHT22;10732;51.472;6.466;2024-01-30T14:31:54;11.40;99.90
21149;DHT22;10732;51.472;6.466;2024-01-30T14:34:20;11.50;99.90
21149;DHT22;10732;51.472;6.466;2024-01-30T14:36:46;11.60;99.90
21149;DHT22;10732;51.472;6.466;2024-01-30T14:39:11;11.70;99.90
21149;DHT22;10732;51.472;6.466;2024-01-30T14:41:37;11.50;99.90
21149;DHT22;10732;51.472;6.466;2024-01-30T14:44:02;11.40;99.90
21149;DHT22;10732;51.472;6.466;2024-01-30T14:46:28;11.30;99.90
21149;DHT22;10732;51.472;6.466;2024-01-30T14:48:54;11.20;99.90
21149;DHT22;10732;51.472;6.466;2024-01-30T14:51:20;11.30;99.90
21149;DHT22;10732;51.472;6.466;2024-01-30T14:53:45;11.30;99.90
21149;DHT22;10732;51.472;6.466;2024-01-30T14:56:11;11.20;99.90
21149;DHT22;10732;51.472;6.466;2024-01-30T14:58:37;11.10;99.90
21149;DHT22;10732;51.472;6.466;2024-01-30T15:01:03;11.10;99.90
21149;DHT22;10732;51.472;6.466;2024-01-30T15:03:28;11.00;99.90
21149;DHT22;10732;51.472;6.466;2024-01-30T15:05:54;10.90;99.90
21149;DHT22;10732;51.472;6.466;2024-01-30T15:08:21;10.80;99.90
21149;DHT22;10732;51.472;6.466;2024-01-30T15:10:46;10.70;99.90
21149;DHT22;10732;51.472;6.466;2024-01-30T15:13:12;10.70;99.90
21149;DHT22;10732;51.472;6.466;2024-01-30T15:15:37;10.60;99.90
21149;DHT22;10732;51.472;6.466;2024-01-30T15:18:03;10.60;99.90
21149;DHT22;10732;51.472;6.466;2024-01-30T15:20:29;10.60;99.90
21149;DHT22;10732;51.472;6.466;2024-01-30T15:22:57;10.60;99.90
21149;DHT22;10732;51.472;6.466;2024-01-30T15:25:22;10.60;99.90
21149;DHT22;10732;51.472;6.466;2024-01-30T15:27:48;10.50;99.90
21149;DHT22;10732;51.472;6.466;2024-01-30T15:30:14;10.50;99.90
21149;DHT22;10732;51.472;6.466;2024-01-30T15:32:39;10.50;99.90
21149;DHT22;10732;51.472;6.466;2024-01-30T15:35:05;10.50;99.90
21149;DHT22;10732;51.472;6.466;2024-01-30T15:37:32;10.40;99.90